sensor_id;sensor_type;location;lat;lon;timestamp;P1;durP1;ratioP1;P2;durP2;ratioP2
7116;SDS011;3600;48.568;7.870;2023-09-12T00:00:44;8.18;;;7.28;;
7116;SDS011;3600;48.568;7.870;2023-09-12T00:03:11;8.38;;;7.57;;
7116;SDS011;3600;48.568;7.870;2023-09-12T00:05:38;11.40;;;8.48;;
7116;SDS011;3600;48.568;7.870;2023-09-12T00:08:05;7.93;;;7.18;;
7116;SDS011;3600;48.568;7.870;2023-09-12T00:10:32;8.52;;;7.63;;
7116;SDS011;3600;48.568;7.870;2023-09-12T00:12:59;12.25;;;7.93;;
7116;SDS011;3600;48.568;7.870;2023-09-12T00:15:28;8.55;;;7.65;;
7116;SDS011;3600;48.568;7.870;2023-09-12T00:17:55;9.18;;;7.57;;
7116;SDS011;3600;48.568;7.870;2023-09-12T00:20:23;9.02;;;8.07;;
7116;SDS011;3600;48.568;7.870;2023-09-12T00:22:50;8.30;;;7.60;;
7116;SDS011;3600;48.568;7.870;2023-09-12T00:25:16;9.95;;;8.32;;
7116;SDS011;3600;48.568;7.870;2023-09-12T00:27:43;9.65;;;7.45;;
7116;SDS011;3600;48.568;7.870;2023-09-12T00:30:10;8.75;;;7.55;;
7116;SDS011;3600;48.568;7.870;2023-09-12T00:32:37;10.27;;;7.95;;
7116;SDS011;3600;48.568;7.870;2023-09-12T00:35:04;8.82;;;7.93;;
7116;SDS011;3600;48.568;7.870;2023-09-12T00:37:31;9.57;;;8.32;;
7116;SDS011;3600;48.568;7.870;2023-09-12T00:39:58;9.02;;;8.05;;
7116;SDS011;3600;48.568;7.870;2023-09-12T00:42:25;10.85;;;8.57;;
7116;SDS011;3600;48.568;7.870;2023-09-12T00:44:53;8.98;;;8.02;;
7116;SDS011;3600;48.568;7.870;2023-09-12T00:47:20;8.32;;;7.50;;
7116;SDS011;3600;48.568;7.870;2023-09-12T00:49:48;9.38;;;7.93;;
7116;SDS011;3600;48.568;7.870;2023-09-12T00:52:22;10.95;;;8.02;;
7116;SDS011;3600;48.568;7.870;2023-09-12T00:54:51;8.60;;;7.28;;
7116;SDS011;3600;48.568;7.870;2023-09-12T00:57:19;8.32;;;7.63;;
7116;SDS011;3600;48.568;7.870;2023-09-12T00:59:47;11.38;;;7.72;;
7116;SDS011;3600;48.568;7.870;2023-09-12T01:02:15;9.32;;;8.40;;
7116;SDS011;3600;48.568;7.870;2023-09-12T01:04:44;9.75;;;7.10;;
7116;SDS011;3600;48.568;7.870;2023-09-12T01:07:11;8.10;;;7.40;;
7116;SDS011;3600;48.568;7.870;2023-09-12T01:09:38;8.02;;;7.22;;
7116;SDS011;3600;48.568;7.870;2023-09-12T01:12:06;7.80;;;7.10;;
7116;SDS011;3600;48.568;7.870;2023-09-12T01:14:34;8.80;;;7.97;;
7116;SDS011;3600;48.568;7.870;2023-09-12T01:17:02;9.02;;;7.93;;
7116;SDS011;3600;48.568;7.870;2023-09-12T01:19:29;10.68;;;7.90;;
7116;SDS011;3600;48.568;7.870;2023-09-12T01:22:03;8.48;;;7.63;;
7116;SDS011;3600;48.568;7.870;2023-09-12T01:27:51;10.02;;;7.82;;
7116;SDS011;3600;48.568;7.870;2023-09-12T01:30:20;9.25;;;7.55;;
7116;SDS011;3600;48.568;7.870;2023-09-12T01:32:48;10.18;;;8.10;;
7116;SDS011;3600;48.568;7.870;2023-09-12T01:35:17;8.32;;;7.40;;
7116;SDS011;3600;48.568;7.870;2023-09-12T01:37:43;12.27;;;8.63;;
7116;SDS011;3600;48.568;7.870;2023-09-12T01:40:10;8.85;;;7.22;;
7116;SDS011;3600;48.568;7.870;2023-09-12T01:42:38;9.05;;;8.15;;
7116;SDS011;3600;48.568;7.870;2023-09-12T01:45:10;9.45;;;8.10;;
7116;SDS011;3600;48.568;7.870;2023-09-12T01:47:41;8.68;;;7.78;;
7116;SDS011;3600;48.568;7.870;2023-09-12T01:50:09;8.63;;;7.75;;
7116;SDS011;3600;48.568;7.870;2023-09-12T01:52:39;8.75;;;7.85;;
7116;SDS011;3600;48.568;7.870;2023-09-12T01:55:07;9.93;;;8.00;;
7116;SDS011;3600;48.568;7.870;2023-09-12T01:57:37;8.55;;;7.82;;
7116;SDS011;3600;48.568;7.870;2023-09-12T02:00:04;7.75;;;7.07;;
7116;SDS011;3600;48.568;7.870;2023-09-12T02:02:32;9.75;;;7.90;;
7116;SDS011;3600;48.568;7.870;2023-09-12T02:05:04;8.68;;;7.80;;
7116;SDS011;3600;48.568;7.870;2023-09-12T02:07:45;8.68;;;7.78;;
7116;SDS011;3600;48.568;7.870;2023-09-12T02:10:12;8.75;;;7.95;;
7116;SDS011;3600;48.568;7.870;2023-09-12T02:12:40;11.55;;;8.55;;
7116;SDS011;3600;48.568;7.870;2023-09-12T02:15:07;9.23;;;7.68;;
7116;SDS011;3600;48.568;7.870;2023-09-12T02:17:34;10.05;;;7.85;;
7116;SDS011;3600;48.568;7.870;2023-09-12T02:20:01;9.05;;;8.15;;
7116;SDS011;3600;48.568;7.870;2023-09-12T02:22:31;8.68;;;7.75;;
7116;SDS011;3600;48.568;7.870;2023-09-12T02:24:58;10.50;;;7.63;;
7116;SDS011;3600;48.568;7.870;2023-09-12T02:27:24;9.18;;;8.25;;
7116;SDS011;3600;48.568;7.870;2023-09-12T02:29:51;10.63;;;7.70;;
7116;SDS011;3600;48.568;7.870;2023-09-12T02:32:18;10.18;;;7.97;;
7116;SDS011;3600;48.568;7.870;2023-09-12T02:34:45;8.05;;;7.25;;
7116;SDS011;3600;48.568;7.870;2023-09-12T02:37:12;9.05;;;8.07;;
7116;SDS011;3600;48.568;7.870;2023-09-12T02:39:39;8.38;;;7.57;;
7116;SDS011;3600;48.568;7.870;2023-09-12T02:42:06;7.63;;;6.93;;
7116;SDS011;3600;48.568;7.870;2023-09-12T02:44:33;8.70;;;7.63;;
7116;SDS011;3600;48.568;7.870;2023-09-12T02:46:59;9.85;;;7.70;;
7116;SDS011;3600;48.568;7.870;2023-09-12T02:49:26;8.80;;;7.80;;
7116;SDS011;3600;48.568;7.870;2023-09-12T02:51:53;8.30;;;7.50;;
7116;SDS011;3600;48.568;7.870;2023-09-12T02:54:20;9.90;;;7.95;;
7116;SDS011;3600;48.568;7.870;2023-09-12T02:56:46;12.93;;;7.28;;
7116;SDS011;3600;48.568;7.870;2023-09-12T02:59:13;10.93;;;8.52;;
7116;SDS011;3600;48.568;7.870;2023-09-12T03:01:40;10.35;;;7.63;;
7116;SDS011;3600;48.568;7.870;2023-09-12T03:04:07;10.52;;;8.20;;
7116;SDS011;3600;48.568;7.870;2023-09-12T03:06:34;9.13;;;8.23;;
7116;SDS011;3600;48.568;7.870;2023-09-12T03:09:02;8.93;;;8.13;;
7116;SDS011;3600;48.568;7.870;2023-09-12T03:11:29;8.18;;;7.38;;
7116;SDS011;3600;48.568;7.870;2023-09-12T03:13:56;12.15;;;8.23;;
7116;SDS011;3600;48.568;7.870;2023-09-12T03:16:23;9.68;;;8.15;;
7116;SDS011;3600;48.568;7.870;2023-09-12T03:18:50;8.30;;;7.50;;
7116;SDS011;3600;48.568;7.870;2023-09-12T03:21:17;8.73;;;7.93;;
7116;SDS011;3600;48.568;7.870;2023-09-12T03:23:44;8.57;;;7.68;;
7116;SDS011;3600;48.568;7.870;2023-09-12T03:26:11;10.93;;;8.07;;
7116;SDS011;3600;48.568;7.870;2023-09-12T03:28:38;10.73;;;7.75;;
7116;SDS011;3600;48.568;7.870;2023-09-12T03:31:06;9.32;;;6.93;;
7116;SDS011;3600;48.568;7.870;2023-09-12T03:33:34;8.15;;;7.30;;
7116;SDS011;3600;48.568;7.870;2023-09-12T03:36:01;8.85;;;7.97;;
7116;SDS011;3600;48.568;7.870;2023-09-12T03:38:29;10.70;;;8.23;;
7116;SDS011;3600;48.568;7.870;2023-09-12T03:40:56;10.13;;;8.38;;
7116;SDS011;3600;48.568;7.870;2023-09-12T03:43:23;8.23;;;7.43;;
7116;SDS011;3600;48.568;7.870;2023-09-12T03:45:50;7.88;;;7.10;;
7116;SDS011;3600;48.568;7.870;2023-09-12T03:48:16;8.88;;;7.82;;
7116;SDS011;3600;48.568;7.870;2023-09-12T03:50:44;9.05;;;8.00;;
7116;SDS011;3600;48.568;7.870;2023-09-12T03:53:13;10.07;;;7.95;;
7116;SDS011;3600;48.568;7.870;2023-09-12T03:55:40;11.15;;;7.43;;
7116;SDS011;3600;48.568;7.870;2023-09-12T03:58:07;9.07;;;7.88;;
7116;SDS011;3600;48.568;7.870;2023-09-12T04:00:34;9.13;;;8.32;;
7116;SDS011;3600;48.568;7.870;2023-09-12T04:03:01;9.95;;;7.72;;
7116;SDS011;3600;48.568;7.870;2023-09-12T04:05:28;8.32;;;7.43;;
7116;SDS011;3600;48.568;7.870;2023-09-12T04:07:54;8.70;;;7.88;;
7116;SDS011;3600;48.568;7.870;2023-09-12T04:10:21;8.95;;;8.07;;
7116;SDS011;3600;48.568;7.870;2023-09-12T04:12:49;8.75;;;7.85;;
7116;SDS011;3600;48.568;7.870;2023-09-12T04:15:16;10.10;;;7.72;;
7116;SDS011;3600;48.568;7.870;2023-09-12T04:17:42;9.80;;;8.27;;
7116;SDS011;3600;48.568;7.870;2023-09-12T04:20:09;8.80;;;7.82;;
7116;SDS011;3600;48.568;7.870;2023-09-12T04:22:41;9.45;;;8.30;;
7116;SDS011;3600;48.568;7.870;2023-09-12T04:25:08;10.07;;;8.60;;
7116;SDS011;3600;48.568;7.870;2023-09-12T04:27:35;9.48;;;8.57;;
7116;SDS011;3600;48.568;7.870;2023-09-12T04:30:02;9.52;;;8.57;;
7116;SDS011;3600;48.568;7.870;2023-09-12T04:32:30;9.38;;;8.30;;
7116;SDS011;3600;48.568;7.870;2023-09-12T04:34:57;9.73;;;8.27;;
7116;SDS011;3600;48.568;7.870;2023-09-12T04:37:24;8.88;;;8.18;;
7116;SDS011;3600;48.568;7.870;2023-09-12T04:39:50;11.73;;;8.48;;
7116;SDS011;3600;48.568;7.870;2023-09-12T04:42:18;9.93;;;8.77;;
7116;SDS011;3600;48.568;7.870;2023-09-12T04:44:44;10.38;;;8.75;;
7116;SDS011;3600;48.568;7.870;2023-09-12T04:47:11;11.25;;;9.32;;
7116;SDS011;3600;48.568;7.870;2023-09-12T04:49:39;13.30;;;8.75;;
7116;SDS011;3600;48.568;7.870;2023-09-12T04:52:06;11.27;;;9.60;;
7116;SDS011;3600;48.568;7.870;2023-09-12T04:54:33;10.77;;;8.75;;
7116;SDS011;3600;48.568;7.870;2023-09-12T04:57:00;9.20;;;8.30;;
7116;SDS011;3600;48.568;7.870;2023-09-12T04:59:26;11.43;;;9.95;;
7116;SDS011;3600;48.568;7.870;2023-09-12T05:01:53;10.35;;;9.35;;
7116;SDS011;3600;48.568;7.870;2023-09-12T05:04:20;11.20;;;9.85;;
7116;SDS011;3600;48.568;7.870;2023-09-12T05:06:47;10.10;;;9.18;;
7116;SDS011;3600;48.568;7.870;2023-09-12T05:09:15;10.35;;;9.15;;
7116;SDS011;3600;48.568;7.870;2023-09-12T05:11:42;10.93;;;8.45;;
7116;SDS011;3600;48.568;7.870;2023-09-12T05:14:10;9.55;;;8.55;;
7116;SDS011;3600;48.568;7.870;2023-09-12T05:16:37;10.30;;;8.80;;
7116;SDS011;3600;48.568;7.870;2023-09-12T05:19:04;10.15;;;9.10;;
7116;SDS011;3600;48.568;7.870;2023-09-12T05:21:31;11.50;;;8.55;;
7116;SDS011;3600;48.568;7.870;2023-09-12T05:23:58;10.23;;;8.52;;
7116;SDS011;3600;48.568;7.870;2023-09-12T05:26:25;9.88;;;8.88;;
7116;SDS011;3600;48.568;7.870;2023-09-12T05:28:52;11.07;;;8.25;;
7116;SDS011;3600;48.568;7.870;2023-09-12T05:31:19;9.68;;;8.23;;
7116;SDS011;3600;48.568;7.870;2023-09-12T05:33:46;11.25;;;8.52;;
7116;SDS011;3600;48.568;7.870;2023-09-12T05:36:12;8.93;;;8.00;;
7116;SDS011;3600;48.568;7.870;2023-09-12T05:38:39;9.38;;;8.40;;
7116;SDS011;3600;48.568;7.870;2023-09-12T05:41:07;12.43;;;9.15;;
7116;SDS011;3600;48.568;7.870;2023-09-12T05:43:33;9.52;;;8.63;;
7116;SDS011;3600;48.568;7.870;2023-09-12T05:46:00;10.00;;;9.02;;
7116;SDS011;3600;48.568;7.870;2023-09-12T05:48:28;12.52;;;8.93;;
7116;SDS011;3600;48.568;7.870;2023-09-12T05:50:55;11.55;;;8.80;;
7116;SDS011;3600;48.568;7.870;2023-09-12T05:53:22;10.07;;;8.80;;
7116;SDS011;3600;48.568;7.870;2023-09-12T05:55:48;10.57;;;8.32;;
7116;SDS011;3600;48.568;7.870;2023-09-12T05:58:15;9.40;;;8.50;;
7116;SDS011;3600;48.568;7.870;2023-09-12T06:00:42;9.65;;;8.65;;
7116;SDS011;3600;48.568;7.870;2023-09-12T06:03:10;11.20;;;9.13;;
7116;SDS011;3600;48.568;7.870;2023-09-12T06:05:38;13.13;;;8.80;;
7116;SDS011;3600;48.568;7.870;2023-09-12T06:08:05;11.32;;;9.57;;
7116;SDS011;3600;48.568;7.870;2023-09-12T06:10:32;12.27;;;9.23;;
7116;SDS011;3600;48.568;7.870;2023-09-12T06:13:00;12.82;;;9.75;;
7116;SDS011;3600;48.568;7.870;2023-09-12T06:15:26;9.48;;;8.57;;
7116;SDS011;3600;48.568;7.870;2023-09-12T06:17:53;11.30;;;9.15;;
7116;SDS011;3600;48.568;7.870;2023-09-12T06:20:21;9.38;;;8.30;;
7116;SDS011;3600;48.568;7.870;2023-09-12T06:22:48;11.68;;;9.32;;
7116;SDS011;3600;48.568;7.870;2023-09-12T06:25:15;11.93;;;8.13;;
7116;SDS011;3600;48.568;7.870;2023-09-12T06:27:42;12.55;;;9.13;;
7116;SDS011;3600;48.568;7.870;2023-09-12T06:30:09;9.20;;;8.35;;
7116;SDS011;3600;48.568;7.870;2023-09-12T06:32:36;9.27;;;8.30;;
7116;SDS011;3600;48.568;7.870;2023-09-12T06:35:05;11.35;;;8.75;;
7116;SDS011;3600;48.568;7.870;2023-09-12T06:37:32;9.15;;;8.35;;
7116;SDS011;3600;48.568;7.870;2023-09-12T06:39:59;9.38;;;8.35;;
7116;SDS011;3600;48.568;7.870;2023-09-12T06:42:25;9.23;;;8.32;;
7116;SDS011;3600;48.568;7.870;2023-09-12T06:44:52;11.00;;;8.43;;
7116;SDS011;3600;48.568;7.870;2023-09-12T06:47:19;10.63;;;8.23;;
7116;SDS011;3600;48.568;7.870;2023-09-12T06:49:46;12.93;;;8.82;;
7116;SDS011;3600;48.568;7.870;2023-09-12T06:52:20;10.98;;;8.45;;
7116;SDS011;3600;48.568;7.870;2023-09-12T06:54:48;10.77;;;8.35;;
7116;SDS011;3600;48.568;7.870;2023-09-12T06:57:15;11.80;;;7.65;;
7116;SDS011;3600;48.568;7.870;2023-09-12T06:59:41;8.63;;;7.78;;
7116;SDS011;3600;48.568;7.870;2023-09-12T07:02:08;10.70;;;8.25;;
7116;SDS011;3600;48.568;7.870;2023-09-12T07:04:37;9.18;;;8.15;;
7116;SDS011;3600;48.568;7.870;2023-09-12T07:07:04;10.95;;;8.85;;
7116;SDS011;3600;48.568;7.870;2023-09-12T07:09:31;11.38;;;8.63;;
7116;SDS011;3600;48.568;7.870;2023-09-12T07:11:58;10.65;;;8.52;;
7116;SDS011;3600;48.568;7.870;2023-09-12T07:14:24;8.98;;;8.13;;
7116;SDS011;3600;48.568;7.870;2023-09-12T07:16:52;9.23;;;7.90;;
7116;SDS011;3600;48.568;7.870;2023-09-12T07:19:18;9.15;;;7.95;;
7116;SDS011;3600;48.568;7.870;2023-09-12T07:21:45;8.88;;;8.00;;
7116;SDS011;3600;48.568;7.870;2023-09-12T07:24:13;9.27;;;7.93;;
7116;SDS011;3600;48.568;7.870;2023-09-12T07:26:39;10.80;;;8.13;;
7116;SDS011;3600;48.568;7.870;2023-09-12T07:29:06;9.77;;;8.00;;
7116;SDS011;3600;48.568;7.870;2023-09-12T07:31:33;9.40;;;8.10;;
7116;SDS011;3600;48.568;7.870;2023-09-12T07:34:00;9.57;;;8.20;;
7116;SDS011;3600;48.568;7.870;2023-09-12T07:36:27;9.65;;;8.73;;
7116;SDS011;3600;48.568;7.870;2023-09-12T07:38:54;8.77;;;7.97;;
7116;SDS011;3600;48.568;7.870;2023-09-12T07:41:21;10.30;;;8.35;;
7116;SDS011;3600;48.568;7.870;2023-09-12T07:43:48;8.57;;;7.72;;
7116;SDS011;3600;48.568;7.870;2023-09-12T07:46:14;9.88;;;8.20;;
7116;SDS011;3600;48.568;7.870;2023-09-12T07:48:41;10.40;;;8.57;;
7116;SDS011;3600;48.568;7.870;2023-09-12T07:51:12;9.18;;;8.15;;
7116;SDS011;3600;48.568;7.870;2023-09-12T07:53:41;9.20;;;8.30;;
7116;SDS011;3600;48.568;7.870;2023-09-12T07:56:08;10.52;;;8.70;;
7116;SDS011;3600;48.568;7.870;2023-09-12T07:58:39;9.00;;;8.13;;
7116;SDS011;3600;48.568;7.870;2023-09-12T08:01:09;9.65;;;8.15;;
7116;SDS011;3600;48.568;7.870;2023-09-12T08:03:36;9.02;;;7.82;;
7116;SDS011;3600;48.568;7.870;2023-09-12T08:06:05;11.52;;;8.63;;
7116;SDS011;3600;48.568;7.870;2023-09-12T08:08:32;10.73;;;8.90;;
7116;SDS011;3600;48.568;7.870;2023-09-12T08:10:59;9.65;;;8.27;;
7116;SDS011;3600;48.568;7.870;2023-09-12T08:13:26;10.13;;;9.10;;
7116;SDS011;3600;48.568;7.870;2023-09-12T08:15:54;12.02;;;8.65;;
7116;SDS011;3600;48.568;7.870;2023-09-12T08:18:21;10.65;;;8.52;;
7116;SDS011;3600;48.568;7.870;2023-09-12T08:20:56;9.18;;;8.35;;
7116;SDS011;3600;48.568;7.870;2023-09-12T08:23:23;9.07;;;8.18;;
7116;SDS011;3600;48.568;7.870;2023-09-12T08:25:50;9.13;;;8.18;;
7116;SDS011;3600;48.568;7.870;2023-09-12T08:28:17;9.32;;;8.43;;
7116;SDS011;3600;48.568;7.870;2023-09-12T08:30:44;10.77;;;8.07;;
7116;SDS011;3600;48.568;7.870;2023-09-12T08:33:12;10.00;;;7.88;;
7116;SDS011;3600;48.568;7.870;2023-09-12T08:35:39;9.48;;;8.57;;
7116;SDS011;3600;48.568;7.870;2023-09-12T08:38:06;10.48;;;7.75;;
7116;SDS011;3600;48.568;7.870;2023-09-12T08:40:34;8.57;;;7.78;;
7116;SDS011;3600;48.568;7.870;2023-09-12T08:43:02;10.90;;;8.10;;
7116;SDS011;3600;48.568;7.870;2023-09-12T08:45:32;8.77;;;7.90;;
7116;SDS011;3600;48.568;7.870;2023-09-12T08:48:02;9.00;;;7.70;;
7116;SDS011;3600;48.568;7.870;2023-09-12T08:50:31;9.57;;;8.40;;
7116;SDS011;3600;48.568;7.870;2023-09-12T08:53:00;11.10;;;8.32;;
7116;SDS011;3600;48.568;7.870;2023-09-12T08:55:34;8.82;;;7.97;;
7116;SDS011;3600;48.568;7.870;2023-09-12T08:58:03;8.88;;;7.97;;
7116;SDS011;3600;48.568;7.870;2023-09-12T09:00:31;10.05;;;8.07;;
7116;SDS011;3600;48.568;7.870;2023-09-12T09:02:58;11.15;;;7.80;;
7116;SDS011;3600;48.568;7.870;2023-09-12T09:05:27;8.65;;;7.93;;
7116;SDS011;3600;48.568;7.870;2023-09-12T09:07:55;9.65;;;7.53;;
7116;SDS011;3600;48.568;7.870;2023-09-12T09:10:23;8.55;;;7.72;;
7116;SDS011;3600;48.568;7.870;2023-09-12T09:13:11;8.80;;;7.72;;
7116;SDS011;3600;48.568;7.870;2023-09-12T09:15:39;10.18;;;8.07;;
7116;SDS011;3600;48.568;7.870;2023-09-12T09:18:08;9.00;;;8.10;;
7116;SDS011;3600;48.568;7.870;2023-09-12T09:20:37;8.70;;;7.78;;
7116;SDS011;3600;48.568;7.870;2023-09-12T09:23:05;8.85;;;7.97;;
7116;SDS011;3600;48.568;7.870;2023-09-12T09:25:36;8.35;;;7.55;;
7116;SDS011;3600;48.568;7.870;2023-09-12T09:28:17;8.18;;;7.40;;
7116;SDS011;3600;48.568;7.870;2023-09-12T09:30:46;8.10;;;7.25;;
7116;SDS011;3600;48.568;7.870;2023-09-12T09:33:14;7.80;;;6.93;;
7116;SDS011;3600;48.568;7.870;2023-09-12T09:35:42;7.55;;;6.85;;
7116;SDS011;3600;48.568;7.870;2023-09-12T09:38:13;8.80;;;7.90;;
7116;SDS011;3600;48.568;7.870;2023-09-12T09:40:43;8.75;;;7.30;;
7116;SDS011;3600;48.568;7.870;2023-09-12T09:43:11;9.98;;;6.75;;
7116;SDS011;3600;48.568;7.870;2023-09-12T09:45:46;8.90;;;7.13;;
7116;SDS011;3600;48.568;7.870;2023-09-12T09:48:19;9.45;;;7.20;;
7116;SDS011;3600;48.568;7.870;2023-09-12T09:50:47;9.98;;;7.15;;
7116;SDS011;3600;48.568;7.870;2023-09-12T09:53:14;7.82;;;7.07;;
7116;SDS011;3600;48.568;7.870;2023-09-12T09:55:41;10.57;;;7.07;;
7116;SDS011;3600;48.568;7.870;2023-09-12T09:58:15;8.25;;;6.88;;
7116;SDS011;3600;48.568;7.870;2023-09-12T10:00:45;7.80;;;7.10;;
7116;SDS011;3600;48.568;7.870;2023-09-12T10:03:15;11.60;;;7.75;;
7116;SDS011;3600;48.568;7.870;2023-09-12T10:05:45;7.60;;;6.90;;
7116;SDS011;3600;48.568;7.870;2023-09-12T10:08:14;7.40;;;6.70;;
7116;SDS011;3600;48.568;7.870;2023-09-12T10:10:43;7.93;;;6.40;;
7116;SDS011;3600;48.568;7.870;2023-09-12T10:13:11;7.40;;;6.80;;
7116;SDS011;3600;48.568;7.870;2023-09-12T10:15:41;7.82;;;6.68;;
7116;SDS011;3600;48.568;7.870;2023-09-12T10:18:12;7.47;;;6.28;;
7116;SDS011;3600;48.568;7.870;2023-09-12T10:20:55;7.28;;;6.57;;
7116;SDS011;3600;48.568;7.870;2023-09-12T10:23:30;7.38;;;6.68;;
7116;SDS011;3600;48.568;7.870;2023-09-12T10:26:12;9.38;;;6.63;;
7116;SDS011;3600;48.568;7.870;2023-09-12T10:28:40;7.63;;;6.22;;
7116;SDS011;3600;48.568;7.870;2023-09-12T10:31:09;7.45;;;6.13;;
7116;SDS011;3600;48.568;7.870;2023-09-12T10:33:38;7.18;;;6.55;;
7116;SDS011;3600;48.568;7.870;2023-09-12T10:36:06;8.95;;;6.88;;
7116;SDS011;3600;48.568;7.870;2023-09-12T10:38:40;9.57;;;6.78;;
7116;SDS011;3600;48.568;7.870;2023-09-12T10:41:13;8.05;;;6.90;;
7116;SDS011;3600;48.568;7.870;2023-09-12T10:43:41;7.80;;;6.80;;
7116;SDS011;3600;48.568;7.870;2023-09-12T10:46:13;7.57;;;6.88;;
7116;SDS011;3600;48.568;7.870;2023-09-12T10:48:39;8.45;;;6.80;;
7116;SDS011;3600;48.568;7.870;2023-09-12T10:51:07;7.75;;;6.80;;
7116;SDS011;3600;48.568;7.870;2023-09-12T10:53:36;10.10;;;6.80;;
7116;SDS011;3600;48.568;7.870;2023-09-12T11:01:33;7.55;;;6.45;;
7116;SDS011;3600;48.568;7.870;2023-09-12T11:06:53;8.68;;;7.05;;
7116;SDS011;3600;48.568;7.870;2023-09-12T11:09:25;7.65;;;6.68;;
7116;SDS011;3600;48.568;7.870;2023-09-12T11:12:02;7.72;;;6.68;;
7116;SDS011;3600;48.568;7.870;2023-09-12T11:14:29;7.38;;;6.40;;
7116;SDS011;3600;48.568;7.870;2023-09-12T11:19:44;7.03;;;6.32;;
7116;SDS011;3600;48.568;7.870;2023-09-12T11:22:25;7.30;;;6.60;;
7116;SDS011;3600;48.568;7.870;2023-09-12T11:24:52;7.65;;;5.88;;
7116;SDS011;3600;48.568;7.870;2023-09-12T11:27:23;6.55;;;5.93;;
7116;SDS011;3600;48.568;7.870;2023-09-12T11:29:51;6.20;;;5.60;;
7116;SDS011;3600;48.568;7.870;2023-09-12T11:32:30;7.15;;;6.40;;
7116;SDS011;3600;48.568;7.870;2023-09-12T11:35:04;7.18;;;6.07;;
7116;SDS011;3600;48.568;7.870;2023-09-12T11:37:32;6.53;;;5.85;;
7116;SDS011;3600;48.568;7.870;2023-09-12T11:40:25;7.03;;;6.45;;
7116;SDS011;3600;48.568;7.870;2023-09-12T11:43:45;5.85;;;5.35;;
7116;SDS011;3600;48.568;7.870;2023-09-12T11:46:06;6.38;;;5.85;;
7116;SDS011;3600;48.568;7.870;2023-09-12T11:48:35;6.72;;;5.72;;
7116;SDS011;3600;48.568;7.870;2023-09-12T11:51:01;7.20;;;5.70;;
7116;SDS011;3600;48.568;7.870;2023-09-12T11:53:33;6.13;;;5.53;;
7116;SDS011;3600;48.568;7.870;2023-09-12T11:56:02;6.45;;;5.53;;
7116;SDS011;3600;48.568;7.870;2023-09-12T11:58:29;5.82;;;5.20;;
7116;SDS011;3600;48.568;7.870;2023-09-12T12:00:57;5.95;;;5.32;;
7116;SDS011;3600;48.568;7.870;2023-09-12T12:03:26;5.68;;;5.10;;
7116;SDS011;3600;48.568;7.870;2023-09-12T12:05:54;6.45;;;5.85;;
7116;SDS011;3600;48.568;7.870;2023-09-12T12:08:22;6.63;;;6.00;;
7116;SDS011;3600;48.568;7.870;2023-09-12T12:10:53;10.23;;;5.68;;
7116;SDS011;3600;48.568;7.870;2023-09-12T12:13:21;5.95;;;5.45;;
7116;SDS011;3600;48.568;7.870;2023-09-12T12:15:49;5.65;;;5.15;;
7116;SDS011;3600;48.568;7.870;2023-09-12T12:18:16;6.00;;;5.40;;
7116;SDS011;3600;48.568;7.870;2023-09-12T12:20:43;5.72;;;5.22;;
7116;SDS011;3600;48.568;7.870;2023-09-12T12:23:10;6.97;;;5.18;;
7116;SDS011;3600;48.568;7.870;2023-09-12T12:25:37;5.78;;;5.15;;
7116;SDS011;3600;48.568;7.870;2023-09-12T12:28:04;5.43;;;4.95;;
7116;SDS011;3600;48.568;7.870;2023-09-12T12:30:35;5.43;;;4.93;;
7116;SDS011;3600;48.568;7.870;2023-09-12T12:33:06;5.75;;;5.15;;
7116;SDS011;3600;48.568;7.870;2023-09-12T12:36:01;7.15;;;5.25;;
7116;SDS011;3600;48.568;7.870;2023-09-12T12:38:36;5.50;;;5.10;;
7116;SDS011;3600;48.568;7.870;2023-09-12T12:41:22;5.75;;;4.78;;
7116;SDS011;3600;48.568;7.870;2023-09-12T12:43:51;5.38;;;4.88;;
7116;SDS011;3600;48.568;7.870;2023-09-12T12:46:20;5.82;;;5.32;;
7116;SDS011;3600;48.568;7.870;2023-09-12T12:48:50;4.95;;;4.55;;
7116;SDS011;3600;48.568;7.870;2023-09-12T12:51:21;5.18;;;4.68;;
7116;SDS011;3600;48.568;7.870;2023-09-12T12:56:23;5.35;;;4.95;;
7116;SDS011;3600;48.568;7.870;2023-09-12T12:58:57;5.55;;;4.90;;
7116;SDS011;3600;48.568;7.870;2023-09-12T13:01:29;5.25;;;4.70;;
7116;SDS011;3600;48.568;7.870;2023-09-12T13:03:57;6.45;;;5.50;;
7116;SDS011;3600;48.568;7.870;2023-09-12T13:06:24;5.50;;;5.00;;
7116;SDS011;3600;48.568;7.870;2023-09-12T13:08:52;5.00;;;4.53;;
7116;SDS011;3600;48.568;7.870;2023-09-12T13:11:19;7.38;;;5.13;;
7116;SDS011;3600;48.568;7.870;2023-09-12T13:13:47;5.22;;;4.55;;
7116;SDS011;3600;48.568;7.870;2023-09-12T13:16:15;4.78;;;4.47;;
7116;SDS011;3600;48.568;7.870;2023-09-12T13:18:43;4.78;;;4.43;;
7116;SDS011;3600;48.568;7.870;2023-09-12T13:21:10;5.20;;;4.70;;
7116;SDS011;3600;48.568;7.870;2023-09-12T13:23:37;4.85;;;4.28;;
7116;SDS011;3600;48.568;7.870;2023-09-12T13:26:06;4.70;;;4.30;;
7116;SDS011;3600;48.568;7.870;2023-09-12T13:28:34;5.45;;;4.95;;
7116;SDS011;3600;48.568;7.870;2023-09-12T13:31:01;4.60;;;4.15;;
7116;SDS011;3600;48.568;7.870;2023-09-12T13:33:28;4.70;;;4.30;;
7116;SDS011;3600;48.568;7.870;2023-09-12T13:35:54;4.35;;;4.05;;
7116;SDS011;3600;48.568;7.870;2023-09-12T13:38:21;5.63;;;4.47;;
7116;SDS011;3600;48.568;7.870;2023-09-12T13:40:49;5.90;;;4.65;;
7116;SDS011;3600;48.568;7.870;2023-09-12T13:43:16;6.82;;;4.78;;
7116;SDS011;3600;48.568;7.870;2023-09-12T13:45:43;4.93;;;4.53;;
7116;SDS011;3600;48.568;7.870;2023-09-12T13:48:10;4.82;;;4.30;;
7116;SDS011;3600;48.568;7.870;2023-09-12T13:50:38;5.10;;;4.60;;
7116;SDS011;3600;48.568;7.870;2023-09-12T13:53:05;5.35;;;4.85;;
7116;SDS011;3600;48.568;7.870;2023-09-12T13:55:33;5.18;;;4.78;;
7116;SDS011;3600;48.568;7.870;2023-09-12T13:58:04;5.20;;;4.80;;
7116;SDS011;3600;48.568;7.870;2023-09-12T14:00:33;6.25;;;5.07;;
7116;SDS011;3600;48.568;7.870;2023-09-12T14:03:04;6.25;;;5.07;;
7116;SDS011;3600;48.568;7.870;2023-09-12T14:05:31;5.43;;;4.90;;
7116;SDS011;3600;48.568;7.870;2023-09-12T14:07:59;5.60;;;5.10;;
7116;SDS011;3600;48.568;7.870;2023-09-12T14:10:26;5.32;;;4.82;;
7116;SDS011;3600;48.568;7.870;2023-09-12T14:13:03;6.03;;;4.95;;
7116;SDS011;3600;48.568;7.870;2023-09-12T14:15:47;6.05;;;5.22;;
7116;SDS011;3600;48.568;7.870;2023-09-12T14:18:16;5.63;;;5.13;;
7116;SDS011;3600;48.568;7.870;2023-09-12T14:20:44;5.25;;;4.75;;
7116;SDS011;3600;48.568;7.870;2023-09-12T14:23:13;5.85;;;5.28;;
7116;SDS011;3600;48.568;7.870;2023-09-12T14:25:41;5.70;;;5.05;;
7116;SDS011;3600;48.568;7.870;2023-09-12T14:28:08;5.82;;;5.22;;
7116;SDS011;3600;48.568;7.870;2023-09-12T14:30:37;5.72;;;5.22;;
7116;SDS011;3600;48.568;7.870;2023-09-12T14:33:04;6.10;;;4.40;;
7116;SDS011;3600;48.568;7.870;2023-09-12T14:35:32;4.63;;;4.22;;
7116;SDS011;3600;48.568;7.870;2023-09-12T14:37:58;5.05;;;4.65;;
7116;SDS011;3600;48.568;7.870;2023-09-12T14:40:26;4.65;;;4.25;;
7116;SDS011;3600;48.568;7.870;2023-09-12T14:42:54;4.72;;;4.28;;
7116;SDS011;3600;48.568;7.870;2023-09-12T14:45:21;5.40;;;4.00;;
7116;SDS011;3600;48.568;7.870;2023-09-12T14:47:48;4.40;;;3.95;;
7116;SDS011;3600;48.568;7.870;2023-09-12T14:50:15;4.72;;;4.32;;
7116;SDS011;3600;48.568;7.870;2023-09-12T14:52:43;4.25;;;3.95;;
7116;SDS011;3600;48.568;7.870;2023-09-12T14:55:10;4.93;;;4.43;;
7116;SDS011;3600;48.568;7.870;2023-09-12T14:57:37;4.47;;;4.18;;
7116;SDS011;3600;48.568;7.870;2023-09-12T15:00:04;4.32;;;3.95;;
7116;SDS011;3600;48.568;7.870;2023-09-12T15:02:32;4.43;;;4.10;;
7116;SDS011;3600;48.568;7.870;2023-09-12T15:05:02;4.75;;;4.35;;
7116;SDS011;3600;48.568;7.870;2023-09-12T15:07:30;6.53;;;4.65;;
7116;SDS011;3600;48.568;7.870;2023-09-12T15:09:57;4.22;;;3.90;;
7116;SDS011;3600;48.568;7.870;2023-09-12T15:12:24;5.10;;;4.43;;
7116;SDS011;3600;48.568;7.870;2023-09-12T15:14:51;4.65;;;4.25;;
7116;SDS011;3600;48.568;7.870;2023-09-12T15:17:18;7.50;;;4.13;;
7116;SDS011;3600;48.568;7.870;2023-09-12T15:19:45;4.32;;;4.03;;
7116;SDS011;3600;48.568;7.870;2023-09-12T15:22:12;4.72;;;4.40;;
7116;SDS011;3600;48.568;7.870;2023-09-12T15:24:40;5.03;;;4.57;;
7116;SDS011;3600;48.568;7.870;2023-09-12T15:27:07;5.00;;;4.63;;
7116;SDS011;3600;48.568;7.870;2023-09-12T15:29:34;5.00;;;4.50;;
7116;SDS011;3600;48.568;7.870;2023-09-12T15:32:00;4.97;;;4.63;;
7116;SDS011;3600;48.568;7.870;2023-09-12T15:34:27;5.18;;;4.68;;
7116;SDS011;3600;48.568;7.870;2023-09-12T15:37:08;6.38;;;4.35;;